sensor_id;sensor_type;location;lat;lon;timestamp;temperature;humidity
21312;DHT22;18076;52.154;10.570;2022-11-15T00:00:06;6.10;99.90
21312;DHT22;18076;52.154;10.570;2022-11-15T00:02:31;6.00;99.90
21312;DHT22;18076;52.154;10.570;2022-11-15T00:04:57;5.90;99.90
21312;DHT22;18076;52.154;10.570;2022-11-15T00:07:22;5.80;99.90
21312;DHT22;18076;52.154;10.570;2022-11-15T00:09:48;5.70;99.90
21312;DHT22;18076;52.154;10.570;2022-11-15T00:12:14;5.70;99.90
21312;DHT22;18076;52.154;10.570;2022-11-15T00:14:39;5.60;99.90
21312;DHT22;18076;52.154;10.570;2022-11-15T00:17:05;5.70;99.90
21312;DHT22;18076;52.154;10.570;2022-11-15T00:19:30;5.70;99.90
21312;DHT22;18076;52.154;10.570;2022-11-15T00:21:56;5.80;99.90
21312;DHT22;18076;52.154;10.570;2022-11-15T00:24:22;5.70;99.90
21312;DHT22;18076;52.154;10.570;2022-11-15T00:26:47;5.70;99.90
21312;DHT22;18076;52.154;10.570;2022-11-15T00:29:13;5.70;99.90
21312;DHT22;18076;52.154;10.570;2022-11-15T00:31:39;5.60;99.90
21312;DHT22;18076;52.154;10.570;2022-11-15T00:34:04;5.70;99.90
21312;DHT22;18076;52.154;10.570;2022-11-15T00:36:32;5.70;99.90
21312;DHT22;18076;52.154;10.570;2022-11-15T00:38:58;5.70;99.90
21312;DHT22;18076;52.154;10.570;2022-11-15T00:41:23;5.70;99.90
21312;DHT22;18076;52.154;10.570;2022-11-15T00:43:49;5.70;99.90
21312;DHT22;18076;52.154;10.570;2022-11-15T00:46:14;5.70;99.90
21312;DHT22;18076;52.154;10.570;2022-11-15T00:48:40;5.60;99.90
21312;DHT22;18076;52.154;10.570;2022-11-15T00:51:05;5.50;99.90
21312;DHT22;18076;52.154;10.570;2022-11-15T00:53:31;5.40;99.90
21312;DHT22;18076;52.154;10.570;2022-11-15T00:55:56;5.30;99.90
21312;DHT22;18076;52.154;10.570;2022-11-15T00:58:22;5.30;99.90
21312;DHT22;18076;52.154;10.570;2022-11-15T01:00:47;5.10;99.90
21312;DHT22;18076;52.154;10.570;2022-11-15T01:03:13;5.10;99.90
21312;DHT22;18076;52.154;10.570;2022-11-15T01:05:38;5.00;99.90
21312;DHT22;18076;52.154;10.570;2022-11-15T01:08:04;4.90;99.90
21312;DHT22;18076;52.154;10.570;2022-11-15T01:10:30;4.90;99.90
21312;DHT22;18076;52.154;10.570;2022-11-15T01:12:55;5.00;99.90
21312;DHT22;18076;52.154;10.570;2022-11-15T01:15:21;5.00;99.90
21312;DHT22;18076;52.154;10.570;2022-11-15T01:17:46;4.90;99.90
21312;DHT22;18076;52.154;10.570;2022-11-15T01:20:12;4.90;99.90
21312;DHT22;18076;52.154;10.570;2022-11-15T01:22:38;4.90;99.90
21312;DHT22;18076;52.154;10.570;2022-11-15T01:25:03;5.00;99.90
21312;DHT22;18076;52.154;10.570;2022-11-15T01:27:29;5.00;99.90
21312;DHT22;18076;52.154;10.570;2022-11-15T01:29:54;5.00;99.90
21312;DHT22;18076;52.154;10.570;2022-11-15T01:32:20;4.90;99.90
21312;DHT22;18076;52.154;10.570;2022-11-15T01:34:45;4.90;99.90
21312;DHT22;18076;52.154;10.570;2022-11-15T01:37:11;4.90;99.90
21312;DHT22;18076;52.154;10.570;2022-11-15T01:39:36;4.90;99.90
21312;DHT22;18076;52.154;10.570;2022-11-15T01:42:02;5.00;99.90
21312;DHT22;18076;52.154;10.570;2022-11-15T01:47:04;4.90;99.90
21312;DHT22;18076;52.154;10.570;2022-11-15T01:49:32;4.80;99.90
21312;DHT22;18076;52.154;10.570;2022-11-15T01:51:58;4.80;99.90
21312;DHT22;18076;52.154;10.570;2022-11-15T01:54:25;4.70;99.90
21312;DHT22;18076;52.154;10.570;2022-11-15T01:57:04;4.70;99.90
21312;DHT22;18076;52.154;10.570;2022-11-15T01:59:31;4.80;99.90
21312;DHT22;18076;52.154;10.570;2022-11-15T02:01:57;4.70;99.90
21312;DHT22;18076;52.154;10.570;2022-11-15T02:04:27;4.70;99.90
21312;DHT22;18076;52.154;10.570;2022-11-15T02:06:53;4.70;99.90
21312;DHT22;18076;52.154;10.570;2022-11-15T02:09:19;4.70;99.90
21312;DHT22;18076;52.154;10.570;2022-11-15T02:11:47;4.80;99.90
21312;DHT22;18076;52.154;10.570;2022-11-15T02:14:14;4.80;99.90
21312;DHT22;18076;52.154;10.570;2022-11-15T02:16:51;4.80;99.90
21312;DHT22;18076;52.154;10.570;2022-11-15T02:21:49;4.80;99.90
21312;DHT22;18076;52.154;10.570;2022-11-15T02:29:42;4.70;99.90
21312;DHT22;18076;52.154;10.570;2022-11-15T02:32:35;4.70;99.90
21312;DHT22;18076;52.154;10.570;2022-11-15T02:37:45;4.80;99.90
21312;DHT22;18076;52.154;10.570;2022-11-15T02:42:39;4.70;99.90
21312;DHT22;18076;52.154;10.570;2022-11-15T02:45:29;4.70;99.90
21312;DHT22;18076;52.154;10.570;2022-11-15T02:47:56;4.70;99.90
21312;DHT22;18076;52.154;10.570;2022-11-15T02:50:25;4.60;99.90
21312;DHT22;18076;52.154;10.570;2022-11-15T02:52:51;4.70;99.90
21312;DHT22;18076;52.154;10.570;2022-11-15T02:55:27;4.70;99.90
21312;DHT22;18076;52.154;10.570;2022-11-15T02:57:58;4.70;99.90
21312;DHT22;18076;52.154;10.570;2022-11-15T03:00:26;4.70;99.90
21312;DHT22;18076;52.154;10.570;2022-11-15T03:12:57;4.50;99.90
21312;DHT22;18076;52.154;10.570;2022-11-15T03:16:08;4.50;99.90
21312;DHT22;18076;52.154;10.570;2022-11-15T03:18:21;4.50;99.90
21312;DHT22;18076;52.154;10.570;2022-11-15T03:20:48;4.50;99.90
21312;DHT22;18076;52.154;10.570;2022-11-15T03:23:14;4.60;99.90
21312;DHT22;18076;52.154;10.570;2022-11-15T03:25:46;4.70;99.90
21312;DHT22;18076;52.154;10.570;2022-11-15T03:28:16;4.80;99.90
21312;DHT22;18076;52.154;10.570;2022-11-15T03:30:43;4.80;99.90
21312;DHT22;18076;52.154;10.570;2022-11-15T03:33:10;4.90;99.90
21312;DHT22;18076;52.154;10.570;2022-11-15T03:35:40;4.90;99.90
21312;DHT22;18076;52.154;10.570;2022-11-15T03:38:23;4.80;99.90
21312;DHT22;18076;52.154;10.570;2022-11-15T03:40:53;4.80;99.90
21312;DHT22;18076;52.154;10.570;2022-11-15T03:46:11;4.90;99.90
21312;DHT22;18076;52.154;10.570;2022-11-15T03:48:40;5.00;99.90
21312;DHT22;18076;52.154;10.570;2022-11-15T03:51:06;5.10;99.90
21312;DHT22;18076;52.154;10.570;2022-11-15T03:53:32;5.20;99.90
21312;DHT22;18076;52.154;10.570;2022-11-15T03:55:58;5.30;99.90
21312;DHT22;18076;52.154;10.570;2022-11-15T03:58:23;5.40;99.90
21312;DHT22;18076;52.154;10.570;2022-11-15T04:00:49;5.60;99.90
21312;DHT22;18076;52.154;10.570;2022-11-15T04:03:14;5.70;99.90
21312;DHT22;18076;52.154;10.570;2022-11-15T04:05:40;5.70;99.90
21312;DHT22;18076;52.154;10.570;2022-11-15T04:08:05;5.80;99.90
21312;DHT22;18076;52.154;10.570;2022-11-15T04:10:31;5.80;99.90
21312;DHT22;18076;52.154;10.570;2022-11-15T04:12:56;5.80;99.90
21312;DHT22;18076;52.154;10.570;2022-11-15T04:15:22;5.90;99.90
21312;DHT22;18076;52.154;10.570;2022-11-15T04:17:50;5.90;99.90
21312;DHT22;18076;52.154;10.570;2022-11-15T04:20:20;5.90;99.90
21312;DHT22;18076;52.154;10.570;2022-11-15T04:23:12;5.80;99.90
21312;DHT22;18076;52.154;10.570;2022-11-15T04:25:58;5.70;99.90
21312;DHT22;18076;52.154;10.570;2022-11-15T04:28:24;5.70;99.90
21312;DHT22;18076;52.154;10.570;2022-11-15T04:30:50;5.70;99.90
21312;DHT22;18076;52.154;10.570;2022-11-15T04:33:15;5.60;99.90
21312;DHT22;18076;52.154;10.570;2022-11-15T04:35:41;5.60;99.90
21312;DHT22;18076;52.154;10.570;2022-11-15T04:38:08;5.60;99.90
21312;DHT22;18076;52.154;10.570;2022-11-15T04:40:34;5.70;99.90
21312;DHT22;18076;52.154;10.570;2022-11-15T04:42:59;5.70;99.90
21312;DHT22;18076;52.154;10.570;2022-11-15T04:45:25;5.70;99.90
21312;DHT22;18076;52.154;10.570;2022-11-15T04:47:51;5.80;99.90
21312;DHT22;18076;52.154;10.570;2022-11-15T04:50:16;5.70;99.90
21312;DHT22;18076;52.154;10.570;2022-11-15T04:52:43;5.70;99.90
21312;DHT22;18076;52.154;10.570;2022-11-15T04:55:11;5.70;99.90
21312;DHT22;18076;52.154;10.570;2022-11-15T04:57:37;5.80;99.90
21312;DHT22;18076;52.154;10.570;2022-11-15T05:00:10;5.80;99.90
21312;DHT22;18076;52.154;10.570;2022-11-15T05:02:36;5.90;99.90
21312;DHT22;18076;52.154;10.570;2022-11-15T05:05:20;5.90;99.90
21312;DHT22;18076;52.154;10.570;2022-11-15T05:07:45;5.90;99.90
21312;DHT22;18076;52.154;10.570;2022-11-15T05:10:11;5.90;99.90
21312;DHT22;18076;52.154;10.570;2022-11-15T05:12:36;5.90;99.90
21312;DHT22;18076;52.154;10.570;2022-11-15T05:15:02;5.90;99.90
21312;DHT22;18076;52.154;10.570;2022-11-15T05:17:28;5.90;99.90
21312;DHT22;18076;52.154;10.570;2022-11-15T05:19:54;5.80;99.90
21312;DHT22;18076;52.154;10.570;2022-11-15T05:22:19;5.80;99.90
21312;DHT22;18076;52.154;10.570;2022-11-15T05:24:45;5.80;99.90
21312;DHT22;18076;52.154;10.570;2022-11-15T05:27:11;5.80;99.90
21312;DHT22;18076;52.154;10.570;2022-11-15T05:29:36;5.80;99.90
21312;DHT22;18076;52.154;10.570;2022-11-15T05:32:03;5.70;99.90
21312;DHT22;18076;52.154;10.570;2022-11-15T05:34:28;5.70;99.90
21312;DHT22;18076;52.154;10.570;2022-11-15T05:36:54;5.60;99.90
21312;DHT22;18076;52.154;10.570;2022-11-15T05:39:19;5.70;99.90
21312;DHT22;18076;52.154;10.570;2022-11-15T05:41:49;5.60;99.90
21312;DHT22;18076;52.154;10.570;2022-11-15T05:44:17;5.40;99.90
21312;DHT22;18076;52.154;10.570;2022-11-15T05:46:44;5.30;99.90
21312;DHT22;18076;52.154;10.570;2022-11-15T05:49:11;5.20;99.90
21312;DHT22;18076;52.154;10.570;2022-11-15T05:51:38;5.10;99.90
21312;DHT22;18076;52.154;10.570;2022-11-15T05:54:04;5.10;99.90
21312;DHT22;18076;52.154;10.570;2022-11-15T05:56:30;5.00;99.90
21312;DHT22;18076;52.154;10.570;2022-11-15T05:58:56;5.00;99.90
21312;DHT22;18076;52.154;10.570;2022-11-15T06:01:22;4.90;99.90
21312;DHT22;18076;52.154;10.570;2022-11-15T06:03:48;4.90;99.90
21312;DHT22;18076;52.154;10.570;2022-11-15T06:06:13;4.70;99.90
21312;DHT22;18076;52.154;10.570;2022-11-15T06:08:39;4.80;99.90
21312;DHT22;18076;52.154;10.570;2022-11-15T06:11:05;4.70;99.90
21312;DHT22;18076;52.154;10.570;2022-11-15T06:13:31;4.70;99.90
21312;DHT22;18076;52.154;10.570;2022-11-15T06:15:57;4.60;99.90
21312;DHT22;18076;52.154;10.570;2022-11-15T06:18:22;4.60;99.90
21312;DHT22;18076;52.154;10.570;2022-11-15T06:20:48;4.70;99.90
21312;DHT22;18076;52.154;10.570;2022-11-15T06:23:13;4.80;99.90
21312;DHT22;18076;52.154;10.570;2022-11-15T06:25:39;4.90;99.90
21312;DHT22;18076;52.154;10.570;2022-11-15T06:28:05;4.90;99.90
21312;DHT22;18076;52.154;10.570;2022-11-15T06:30:30;5.00;99.90
21312;DHT22;18076;52.154;10.570;2022-11-15T06:33:02;5.00;99.90
21312;DHT22;18076;52.154;10.570;2022-11-15T06:35:28;5.20;99.90
21312;DHT22;18076;52.154;10.570;2022-11-15T06:37:54;5.20;99.90
21312;DHT22;18076;52.154;10.570;2022-11-15T06:40:20;5.30;99.90
21312;DHT22;18076;52.154;10.570;2022-11-15T06:42:46;5.30;99.90
21312;DHT22;18076;52.154;10.570;2022-11-15T06:45:11;5.30;99.90
21312;DHT22;18076;52.154;10.570;2022-11-15T06:47:44;5.30;99.90
21312;DHT22;18076;52.154;10.570;2022-11-15T06:50:09;5.30;99.90
21312;DHT22;18076;52.154;10.570;2022-11-15T06:52:35;5.40;99.90
21312;DHT22;18076;52.154;10.570;2022-11-15T06:55:00;5.40;99.90
21312;DHT22;18076;52.154;10.570;2022-11-15T06:57:26;5.50;99.90
21312;DHT22;18076;52.154;10.570;2022-11-15T06:59:52;5.40;99.90
21312;DHT22;18076;52.154;10.570;2022-11-15T07:02:17;5.40;99.90
21312;DHT22;18076;52.154;10.570;2022-11-15T07:04:43;5.40;99.90
21312;DHT22;18076;52.154;10.570;2022-11-15T07:07:09;5.40;99.90
21312;DHT22;18076;52.154;10.570;2022-11-15T07:09:34;5.40;99.90
21312;DHT22;18076;52.154;10.570;2022-11-15T07:12:00;5.40;99.90
21312;DHT22;18076;52.154;10.570;2022-11-15T07:14:25;5.50;99.90
21312;DHT22;18076;52.154;10.570;2022-11-15T07:16:51;5.40;99.90
21312;DHT22;18076;52.154;10.570;2022-11-15T07:19:16;5.50;99.90
21312;DHT22;18076;52.154;10.570;2022-11-15T07:21:42;5.50;99.90
21312;DHT22;18076;52.154;10.570;2022-11-15T07:24:08;5.60;99.90
21312;DHT22;18076;52.154;10.570;2022-11-15T07:26:33;5.60;99.90
21312;DHT22;18076;52.154;10.570;2022-11-15T07:28:59;5.70;99.90
21312;DHT22;18076;52.154;10.570;2022-11-15T07:31:24;5.80;99.90
21312;DHT22;18076;52.154;10.570;2022-11-15T07:33:50;5.80;99.90
21312;DHT22;18076;52.154;10.570;2022-11-15T07:36:16;5.90;99.90
21312;DHT22;18076;52.154;10.570;2022-11-15T07:38:42;6.00;99.90
21312;DHT22;18076;52.154;10.570;2022-11-15T07:41:10;6.10;99.90
21312;DHT22;18076;52.154;10.570;2022-11-15T07:43:35;6.10;99.90
21312;DHT22;18076;52.154;10.570;2022-11-15T07:46:05;6.20;99.90
21312;DHT22;18076;52.154;10.570;2022-11-15T07:48:31;6.30;99.90
21312;DHT22;18076;52.154;10.570;2022-11-15T07:50:56;6.30;99.90
21312;DHT22;18076;52.154;10.570;2022-11-15T07:53:22;6.40;99.90
21312;DHT22;18076;52.154;10.570;2022-11-15T07:55:47;6.60;99.90
21312;DHT22;18076;52.154;10.570;2022-11-15T07:58:13;6.70;99.90
21312;DHT22;18076;52.154;10.570;2022-11-15T08:00:38;7.10;99.90
21312;DHT22;18076;52.154;10.570;2022-11-15T08:03:13;7.70;99.90
21312;DHT22;18076;52.154;10.570;2022-11-15T08:05:39;8.00;99.90
21312;DHT22;18076;52.154;10.570;2022-11-15T08:08:05;8.10;99.90
21312;DHT22;18076;52.154;10.570;2022-11-15T08:10:31;8.10;99.90
21312;DHT22;18076;52.154;10.570;2022-11-15T08:12:57;8.20;99.90
21312;DHT22;18076;52.154;10.570;2022-11-15T08:15:24;8.30;99.90
21312;DHT22;18076;52.154;10.570;2022-11-15T08:17:53;8.40;99.90
21312;DHT22;18076;52.154;10.570;2022-11-15T08:20:18;8.50;99.90
21312;DHT22;18076;52.154;10.570;2022-11-15T08:22:44;8.60;99.90
21312;DHT22;18076;52.154;10.570;2022-11-15T08:25:10;8.90;99.90
21312;DHT22;18076;52.154;10.570;2022-11-15T08:27:35;9.40;99.90
21312;DHT22;18076;52.154;10.570;2022-11-15T08:30:01;10.20;99.90
21312;DHT22;18076;52.154;10.570;2022-11-15T08:32:27;10.80;99.90
21312;DHT22;18076;52.154;10.570;2022-11-15T08:34:52;10.80;99.90
21312;DHT22;18076;52.154;10.570;2022-11-15T08:37:18;10.70;99.90
21312;DHT22;18076;52.154;10.570;2022-11-15T08:39:43;10.70;99.90
21312;DHT22;18076;52.154;10.570;2022-11-15T08:42:09;10.60;99.90
21312;DHT22;18076;52.154;10.570;2022-11-15T08:44:34;10.70;99.90
21312;DHT22;18076;52.154;10.570;2022-11-15T08:47:00;10.50;99.90
21312;DHT22;18076;52.154;10.570;2022-11-15T08:49:26;10.50;99.90
21312;DHT22;18076;52.154;10.570;2022-11-15T08:51:51;10.50;99.90
21312;DHT22;18076;52.154;10.570;2022-11-15T08:54:17;10.50;99.90
21312;DHT22;18076;52.154;10.570;2022-11-15T08:56:42;10.40;99.90
21312;DHT22;18076;52.154;10.570;2022-11-15T08:59:08;10.20;99.90
21312;DHT22;18076;52.154;10.570;2022-11-15T09:01:33;10.00;99.90
21312;DHT22;18076;52.154;10.570;2022-11-15T09:03:59;9.80;99.90
21312;DHT22;18076;52.154;10.570;2022-11-15T09:06:24;9.70;99.90
21312;DHT22;18076;52.154;10.570;2022-11-15T09:08:50;9.60;99.90
21312;DHT22;18076;52.154;10.570;2022-11-15T09:11:15;9.50;99.90
21312;DHT22;18076;52.154;10.570;2022-11-15T09:13:45;9.50;99.90
21312;DHT22;18076;52.154;10.570;2022-11-15T09:16:10;9.40;99.90
21312;DHT22;18076;52.154;10.570;2022-11-15T09:18:37;9.40;99.90
21312;DHT22;18076;52.154;10.570;2022-11-15T09:21:03;9.40;99.90
21312;DHT22;18076;52.154;10.570;2022-11-15T09:23:29;9.40;99.90
21312;DHT22;18076;52.154;10.570;2022-11-15T09:26:02;9.40;99.90
21312;DHT22;18076;52.154;10.570;2022-11-15T09:28:30;9.50;99.90
21312;DHT22;18076;52.154;10.570;2022-11-15T09:31:12;9.60;99.90
21312;DHT22;18076;52.154;10.570;2022-11-15T09:33:37;9.60;99.90
21312;DHT22;18076;52.154;10.570;2022-11-15T09:36:04;9.60;99.90
21312;DHT22;18076;52.154;10.570;2022-11-15T09:38:30;9.70;99.90
21312;DHT22;18076;52.154;10.570;2022-11-15T09:41:08;9.80;99.90
21312;DHT22;18076;52.154;10.570;2022-11-15T09:51:30;12.90;99.90
21312;DHT22;18076;52.154;10.570;2022-11-15T09:54:43;14.40;99.90
21312;DHT22;18076;52.154;10.570;2022-11-15T09:56:43;15.70;99.90
21312;DHT22;18076;52.154;10.570;2022-11-15T10:04:15;16.90;99.90
21312;DHT22;18076;52.154;10.570;2022-11-15T10:09:33;18.40;99.90
21312;DHT22;18076;52.154;10.570;2022-11-15T10:12:04;19.20;99.90
21312;DHT22;18076;52.154;10.570;2022-11-15T10:14:30;18.90;99.90
21312;DHT22;18076;52.154;10.570;2022-11-15T10:17:02;18.80;99.90
21312;DHT22;18076;52.154;10.570;2022-11-15T10:24:44;19.30;99.90
21312;DHT22;18076;52.154;10.570;2022-11-15T10:27:11;19.50;99.90
21312;DHT22;18076;52.154;10.570;2022-11-15T10:29:40;19.80;99.90
21312;DHT22;18076;52.154;10.570;2022-11-15T10:32:07;20.50;99.90
21312;DHT22;18076;52.154;10.570;2022-11-15T10:34:34;20.70;99.90
21312;DHT22;18076;52.154;10.570;2022-11-15T10:37:00;20.70;99.90
21312;DHT22;18076;52.154;10.570;2022-11-15T10:39:27;20.70;99.90
21312;DHT22;18076;52.154;10.570;2022-11-15T10:41:53;20.60;99.90
21312;DHT22;18076;52.154;10.570;2022-11-15T10:44:23;20.30;99.90
21312;DHT22;18076;52.154;10.570;2022-11-15T10:49:22;19.30;99.90
21312;DHT22;18076;52.154;10.570;2022-11-15T10:51:56;19.10;99.90
21312;DHT22;18076;52.154;10.570;2022-11-15T10:54:30;18.70;99.90
21312;DHT22;18076;52.154;10.570;2022-11-15T10:56:59;18.50;99.90
21312;DHT22;18076;52.154;10.570;2022-11-15T10:59:29;18.60;99.90
21312;DHT22;18076;52.154;10.570;2022-11-15T11:01:55;18.70;99.90
21312;DHT22;18076;52.154;10.570;2022-11-15T11:04:21;18.40;99.90
21312;DHT22;18076;52.154;10.570;2022-11-15T11:06:48;18.30;99.90
21312;DHT22;18076;52.154;10.570;2022-11-15T11:09:22;18.40;99.90
21312;DHT22;18076;52.154;10.570;2022-11-15T11:11:51;18.20;99.90
21312;DHT22;18076;52.154;10.570;2022-11-15T11:14:21;18.20;99.90
21312;DHT22;18076;52.154;10.570;2022-11-15T11:24:49;18.10;99.90
21312;DHT22;18076;52.154;10.570;2022-11-15T11:30:03;17.20;99.90
21312;DHT22;18076;52.154;10.570;2022-11-15T11:43:12;15.40;99.90
21312;DHT22;18076;52.154;10.570;2022-11-15T11:51:17;15.10;99.90
21312;DHT22;18076;52.154;10.570;2022-11-15T11:53:54;14.90;99.90
21312;DHT22;18076;52.154;10.570;2022-11-15T11:56:27;14.70;99.90
21312;DHT22;18076;52.154;10.570;2022-11-15T11:58:54;14.60;99.90
21312;DHT22;18076;52.154;10.570;2022-11-15T12:01:29;14.60;99.90
21312;DHT22;18076;52.154;10.570;2022-11-15T12:04:17;14.70;99.90
21312;DHT22;18076;52.154;10.570;2022-11-15T12:06:46;14.90;99.90
21312;DHT22;18076;52.154;10.570;2022-11-15T12:11:55;15.60;99.90
21312;DHT22;18076;52.154;10.570;2022-11-15T12:16:47;16.00;99.90
21312;DHT22;18076;52.154;10.570;2022-11-15T12:19:12;16.00;99.90
21312;DHT22;18076;52.154;10.570;2022-11-15T12:24:45;15.80;99.90
21312;DHT22;18076;52.154;10.570;2022-11-15T12:27:15;15.60;99.90
21312;DHT22;18076;52.154;10.570;2022-11-15T12:29:43;15.50;99.90
21312;DHT22;18076;52.154;10.570;2022-11-15T12:32:26;15.40;99.90
21312;DHT22;18076;52.154;10.570;2022-11-15T12:34:53;15.10;99.90
21312;DHT22;18076;52.154;10.570;2022-11-15T12:42:42;14.60;99.90
21312;DHT22;18076;52.154;10.570;2022-11-15T12:45:42;14.60;99.90
21312;DHT22;18076;52.154;10.570;2022-11-15T13:06:38;14.10;99.90
21312;DHT22;18076;52.154;10.570;2022-11-15T13:09:49;14.10;99.90
21312;DHT22;18076;52.154;10.570;2022-11-15T13:11:50;14.00;99.90
21312;DHT22;18076;52.154;10.570;2022-11-15T13:17:00;14.00;99.90
21312;DHT22;18076;52.154;10.570;2022-11-15T13:19:26;13.90;99.90
21312;DHT22;18076;52.154;10.570;2022-11-15T13:21:52;13.90;99.90
21312;DHT22;18076;52.154;10.570;2022-11-15T13:24:37;14.00;99.90
21312;DHT22;18076;52.154;10.570;2022-11-15T13:27:10;13.70;99.90
21312;DHT22;18076;52.154;10.570;2022-11-15T13:29:37;13.60;99.90
21312;DHT22;18076;52.154;10.570;2022-11-15T13:32:02;13.50;99.90
21312;DHT22;18076;52.154;10.570;2022-11-15T13:34:30;13.50;99.90
21312;DHT22;18076;52.154;10.570;2022-11-15T13:36:58;13.50;99.90
21312;DHT22;18076;52.154;10.570;2022-11-15T13:39:34;13.50;99.90
21312;DHT22;18076;52.154;10.570;2022-11-15T13:42:01;13.50;99.90
21312;DHT22;18076;52.154;10.570;2022-11-15T13:44:28;13.50;99.90
21312;DHT22;18076;52.154;10.570;2022-11-15T13:47:04;13.40;99.90
21312;DHT22;18076;52.154;10.570;2022-11-15T13:49:31;13.30;99.90
21312;DHT22;18076;52.154;10.570;2022-11-15T13:51:57;13.30;99.90
21312;DHT22;18076;52.154;10.570;2022-11-15T13:54:24;13.30;99.90
21312;DHT22;18076;52.154;10.570;2022-11-15T13:56:54;13.20;99.90
21312;DHT22;18076;52.154;10.570;2022-11-15T13:59:25;13.20;99.90
21312;DHT22;18076;52.154;10.570;2022-11-15T14:01:52;13.30;99.90
21312;DHT22;18076;52.154;10.570;2022-11-15T14:04:18;13.20;99.90
21312;DHT22;18076;52.154;10.570;2022-11-15T14:06:46;13.30;99.90
21312;DHT22;18076;52.154;10.570;2022-11-15T14:11:57;13.30;99.90
21312;DHT22;18076;52.154;10.570;2022-11-15T14:14:26;13.30;99.90
21312;DHT22;18076;52.154;10.570;2022-11-15T14:18:02;13.20;99.90
21312;DHT22;18076;52.154;10.570;2022-11-15T14:20:32;13.30;99.90
21312;DHT22;18076;52.154;10.570;2022-11-15T14:23:40;13.20;99.90
21312;DHT22;18076;52.154;10.570;2022-11-15T14:25:53;13.20;99.90
21312;DHT22;18076;52.154;10.570;2022-11-15T14:30:48;13.10;99.90
21312;DHT22;18076;52.154;10.570;2022-11-15T14:33:23;13.10;99.90
21312;DHT22;18076;52.154;10.570;2022-11-15T14:35:53;13.50;99.90
21312;DHT22;18076;52.154;10.570;2022-11-15T14:38:21;13.70;99.90
21312;DHT22;18076;52.154;10.570;2022-11-15T14:40:46;13.80;99.90
21312;DHT22;18076;52.154;10.570;2022-11-15T14:43:13;13.70;99.90
21312;DHT22;18076;52.154;10.570;2022-11-15T14:45:39;13.60;99.90
21312;DHT22;18076;52.154;10.570;2022-11-15T14:48:05;13.50;99.90
21312;DHT22;18076;52.154;10.570;2022-11-15T14:50:31;13.40;99.90
21312;DHT22;18076;52.154;10.570;2022-11-15T14:52:57;13.30;99.90
21312;DHT22;18076;52.154;10.570;2022-11-15T14:55:27;13.40;99.90
21312;DHT22;18076;52.154;10.570;2022-11-15T14:57:57;13.30;99.90
21312;DHT22;18076;52.154;10.570;2022-11-15T15:00:23;13.10;99.90
21312;DHT22;18076;52.154;10.570;2022-11-15T15:02:49;13.00;99.90
21312;DHT22;18076;52.154;10.570;2022-11-15T15:05:40;12.80;99.90
21312;DHT22;18076;52.154;10.570;2022-11-15T15:08:06;12.80;99.90
21312;DHT22;18076;52.154;10.570;2022-11-15T15:10:35;12.70;99.90
21312;DHT22;18076;52.154;10.570;2022-11-15T15:13:05;12.60;99.90
21312;DHT22;18076;52.154;10.570;2022-11-15T15:15:32;12.40;99.90
21312;DHT22;18076;52.154;10.570;2022-11-15T15:17:58;12.30;99.90
21312;DHT22;18076;52.154;10.570;2022-11-15T15:20:24;12.20;99.90
21312;DHT22;18076;52.154;10.570;2022-11-15T15:22:54;12.10;99.90
21312;DHT22;18076;52.154;10.570;2022-11-15T15:25:26;12.00;99.90
21312;DHT22;18076;52.154;10.570;2022-11-15T15:27:52;12.00;99.90
21312;DHT22;18076;52.154;10.570;2022-11-15T15:30:18;12.00;99.90
21312;DHT22;18076;52.154;10.570;2022-11-15T15:32:44;12.00;99.90
21312;DHT22;18076;52.154;10.570;2022-11-15T15:35:12;12.00;99.90
21312;DHT22;18076;52.154;10.570;2022-11-15T15:37:39;11.90;99.90
21312;DHT22;18076;52.154;10.570;2022-11-15T15:40:16;11.80;99.90
21312;DHT22;18076;52.154;10.570;2022-11-15T15:42:45;11.90;99.90
21312;DHT22;18076;52.154;10.570;2022-11-15T15:45:11;11.80;99.90
21312;DHT22;18076;52.154;10.570;2022-11-15T15:47:37;11.80;99.90
21312;DHT22;18076;52.154;10.570;2022-11-15T15:50:14;11.70;99.90
21312;DHT22;18076;52.154;10.570;2022-11-15T15:52:41;11.70;99.90
21312;DHT22;18076;52.154;10.570;2022-11-15T15:55:07;11.60;99.90
21312;DHT22;18076;52.154;10.570;2022-11-15T15:57:33;11.60;99.90
21312;DHT22;18076;52.154;10.570;2022-11-15T15:59:58;11.50;99.90
21312;DHT22;18076;52.154;10.570;2022-11-15T16:02:24;11.50;99.90
21312;DHT22;18076;52.154;10.570;2022-11-15T16:04:49;11.50;99.90
21312;DHT22;18076;52.154;10.570;2022-11-15T16:07:16;11.40;99.90
21312;DHT22;18076;52.154;10.570;2022-11-15T16:09:42;11.40;99.90
21312;DHT22;18076;52.154;10.570;2022-11-15T16:15:19;11.40;99.90
21312;DHT22;18076;52.154;10.570;2022-11-15T16:17:54;11.40;99.90
21312;DHT22;18076;52.154;10.570;2022-11-15T16:23:09;11.30;99.90
21312;DHT22;18076;52.154;10.570;2022-11-15T16:25:45;11.40;99.90
21312;DHT22;18076;52.154;10.570;2022-11-15T16:30:42;11.40;99.90
21312;DHT22;18076;52.154;10.570;2022-11-15T16:33:08;11.40;99.90
21312;DHT22;18076;52.154;10.570;2022-11-15T16:35:33;11.40;99.90
21312;DHT22;18076;52.154;10.570;2022-11-15T16:37:59;11.40;99.90
21312;DHT22;18076;52.154;10.570;2022-11-15T16:40:28;11.40;99.90
21312;DHT22;18076;52.154;10.570;2022-11-15T16:42:58;11.40;99.90
21312;DHT22;18076;52.154;10.570;2022-11-15T16:45:25;11.30;99.90
21312;DHT22;18076;52.154;10.570;2022-11-15T16:47:51;11.40;99.90
21312;DHT22;18076;52.154;10.570;2022-11-15T16:50:21;11.30;99.90
21312;DHT22;18076;52.154;10.570;2022-11-15T16:52:55;11.20;99.90
21312;DHT22;18076;52.154;10.570;2022-11-15T16:55:21;11.30;99.90
21312;DHT22;18076;52.154;10.570;2022-11-15T16:57:47;11.20;99.90
21312;DHT22;18076;52.154;10.570;2022-11-15T17:00:13;11.20;99.90
21312;DHT22;18076;52.154;10.570;2022-11-15T17:02:41;11.20;99.90
21312;DHT22;18076;52.154;10.570;2022-11-15T17:05:08;11.20;99.90
21312;DHT22;18076;52.154;10.570;2022-11-15T17:07:34;11.20;99.90
21312;DHT22;18076;52.154;10.570;2022-11-15T17:09:59;11.30;99.90
21312;DHT22;18076;52.154;10.570;2022-11-15T17:12:25;11.50;99.90
21312;DHT22;18076;52.154;10.570;2022-11-15T17:14:50;11.60;99.90
21312;DHT22;18076;52.154;10.570;2022-11-15T17:17:16;11.60;99.90
21312;DHT22;18076;52.154;10.570;2022-11-15T17:19:42;11.70;99.90
21312;DHT22;18076;52.154;10.570;2022-11-15T17:22:07;11.80;99.90
21312;DHT22;18076;52.154;10.570;2022-11-15T17:24:33;11.80;99.90
21312;DHT22;18076;52.154;10.570;2022-11-15T17:26:58;11.80;99.90
21312;DHT22;18076;52.154;10.570;2022-11-15T17:29:24;11.80;99.90
21312;DHT22;18076;52.154;10.570;2022-11-15T17:31:49;11.80;99.90
21312;DHT22;18076;52.154;10.570;2022-11-15T17:34:15;11.80;99.90
21312;DHT22;18076;52.154;10.570;2022-11-15T17:36:40;11.80;99.90